Time;durP1;ratioP1;P1;durP2;ratioP2;P2;SDS_P1;SDS_P2;PMS_P1;PMS_P2;Temp;Humidity;BMP_temperature;BMP_pressure;BME280_temperature;BME280_humidity;BME280_pressure;Samples;Min_cycle;Max_cycle;Signal;HPM_P1;HPM_P2
2023/04/17 00:01:49;;;;;;;22.70;11.60;;;;;;;-144.57;100.00;62443.72;5070701;28;20051;-68
2023/04/17 00:04:16;;;;;;;21.08;11.93;;;;;;;-144.57;100.00;62443.72;5070626;28;20041;-67
2023/04/17 00:06:43;;;;;;;23.70;13.45;;;;;;;-144.57;100.00;62443.72;5053403;28;20071;-68
2023/04/17 00:09:13;;;;;;;24.83;11.77;;;;;;;-144.57;100.00;62443.72;5069936;28;20089;-68
2023/04/17 00:11:39;;;;;;;20.05;11.63;;;;;;;-144.57;100.00;62443.72;5070254;28;20044;-68
2023/04/17 00:14:04;;;;;;;20.15;11.52;;;;;;;-144.57;100.00;62443.72;5071946;28;20471;-68
2023/04/17 00:16:31;;;;;;;20.33;11.60;;;;;;;-144.57;100.00;62443.72;5053853;28;20456;-67
2023/04/17 00:18:57;;;;;;;25.88;12.23;;;;;;;-144.57;100.00;62443.72;5070329;28;20045;-67
2023/04/17 00:21:23;;;;;;;20.48;11.43;;;;;;;-144.57;100.00;62443.72;5070247;28;20040;-68
2023/04/17 00:23:49;;;;;;;27.20;11.52;;;;;;;-144.57;100.00;62443.72;5053661;28;20052;-67
2023/04/17 00:26:15;;;;;;;23.77;11.73;;;;;;;-144.57;100.00;62443.72;5071350;28;20032;-69
2023/04/17 00:28:42;;;;;;;19.88;11.50;;;;;;;-144.57;100.00;62443.72;5070026;28;20533;-68
2023/04/17 00:31:08;;;;;;;20.88;12.50;;;;;;;-144.57;100.00;62443.72;5070074;28;20043;-65
2023/04/17 00:33:34;;;;;;;21.50;11.02;;;;;;;-144.57;100.00;62443.72;5070281;28;20045;-68
2023/04/17 00:36:00;;;;;;;25.52;11.95;;;;;;;-144.57;100.00;62443.72;5071500;28;20048;-68
2023/04/17 00:38:26;;;;;;;20.15;11.48;;;;;;;-144.57;100.00;62443.72;5053690;28;20567;-68
2023/04/17 00:40:51;;;;;;;21.00;11.27;;;;;;;-144.57;100.00;62443.72;5071111;28;20044;-68
2023/04/17 00:43:17;;;;;;;20.67;10.50;;;;;;;-144.57;100.00;62443.72;5070199;28;20071;-68
2023/04/17 00:45:46;;;;;;;15.02;10.65;;;;;;;-144.57;100.00;62443.72;5071458;28;20055;-68
2023/04/17 00:48:14;;;;;;;19.83;11.00;;;;;;;-144.57;100.00;62443.72;5069939;28;20052;-68
2023/04/17 00:50:41;;;;;;;21.10;11.23;;;;;;;-144.57;100.00;62443.72;5053443;28;20036;-68
2023/04/17 00:53:07;;;;;;;17.67;10.95;;;;;;;-144.57;100.00;62443.72;5070158;28;20124;-68
2023/04/17 00:55:34;;;;;;;24.33;11.70;;;;;;;-144.57;100.00;62443.72;5071090;28;20068;-68
2023/04/17 00:58:00;;;;;;;21.52;11.68;;;;;;;-144.57;100.00;62443.72;5037142;28;20048;-69
2023/04/17 01:00:26;;;;;;;24.45;10.38;;;;;;;-144.57;100.00;62443.72;5053263;28;20506;-68
2023/04/17 01:02:55;;;;;;;24.67;11.13;;;;;;;-144.57;100.00;62443.72;5071271;28;20041;-68
2023/04/17 01:05:21;;;;;;;21.17;11.43;;;;;;;-144.57;100.00;62443.72;5036497;28;20132;-69
2023/04/17 01:07:47;;;;;;;24.58;10.90;;;;;;;-144.57;100.00;62443.72;5056378;28;20048;-69
2023/04/17 01:10:13;;;;;;;22.38;11.05;;;;;;;-144.57;100.00;62443.72;5073867;28;20055;-68
2023/04/17 01:12:40;;;;;;;19.77;10.73;;;;;;;-144.57;100.00;62443.72;5074953;28;20063;-66
2023/04/17 01:15:06;;;;;;;22.02;11.45;;;;;;;-144.57;100.00;62443.72;5073915;28;20405;-69
2023/04/17 01:17:32;;;;;;;18.45;11.20;;;;;;;-144.57;100.00;62443.72;5075029;28;20040;-69
2023/04/17 01:19:58;;;;;;;25.20;10.82;;;;;;;-144.57;100.00;62443.72;5073785;28;20047;-68
2023/04/17 01:22:23;;;;;;;22.73;10.52;;;;;;;-144.57;100.00;62443.72;5073850;28;20078;-69
2023/04/17 01:24:54;;;;;;;24.15;11.63;;;;;;;-144.57;100.00;62443.72;5073215;28;20056;-69
2023/04/17 01:27:21;;;;;;;23.60;11.70;;;;;;;-144.57;100.00;62443.72;5073600;28;20045;-66
2023/04/17 01:29:47;;;;;;;21.35;11.40;;;;;;;-144.57;100.00;62443.72;5073582;28;20525;-70
2023/04/17 01:32:13;;;;;;;22.25;11.00;;;;;;;-144.57;100.00;62443.72;5056675;28;20043;-68
2023/04/17 01:34:39;;;;;;;17.90;11.20;;;;;;;-144.57;100.00;62443.72;5074887;28;20045;-69
2023/04/17 01:37:05;;;;;;;18.23;10.88;;;;;;;-144.57;100.00;62443.72;5074607;28;20033;-68
2023/04/17 01:39:31;;;;;;;31.42;11.80;;;;;;;-144.57;100.00;62443.72;5056551;28;20072;-67
2023/04/17 01:41:57;;;;;;;25.35;11.38;;;;;;;-144.57;100.00;62443.72;5073024;28;20485;-70
2023/04/17 01:44:23;;;;;;;18.27;11.30;;;;;;;-144.57;100.00;62443.72;5073740;28;20048;-68
2023/04/17 01:46:50;;;;;;;22.00;11.73;;;;;;;-144.57;100.00;62443.72;5074181;28;20055;-68
2023/04/17 01:49:15;;;;;;;20.67;11.52;;;;;;;-144.57;100.00;62443.72;5073257;28;20051;-68
2023/04/17 01:51:41;;;;;;;20.15;11.38;;;;;;;-144.57;100.00;62443.72;5056477;28;20087;-68
2023/04/17 01:54:07;;;;;;;19.17;11.48;;;;;;;-144.57;100.00;62443.72;5074127;28;20075;-67
2023/04/17 01:56:33;;;;;;;23.98;11.90;;;;;;;-144.57;100.00;62443.72;5039626;28;20403;-67
2023/04/17 01:58:59;;;;;;;19.30;11.43;;;;;;;-144.57;100.00;62443.72;5073111;28;20106;-68
2023/04/17 02:01:25;;;;;;;20.55;12.00;;;;;;;-144.57;100.00;62443.72;5073043;28;20041;-67
2023/04/17 02:03:51;;;;;;;19.42;10.95;;;;;;;-144.57;100.00;62443.72;5073025;28;20085;-68
2023/04/17 02:06:17;;;;;;;20.25;11.00;;;;;;;-144.57;100.00;62443.72;5072777;28;20060;-66
2023/04/17 02:08:43;;;;;;;19.02;11.35;;;;;;;-144.57;100.00;62443.72;5072743;28;20517;-69
2023/04/17 02:11:09;;;;;;;19.30;11.23;;;;;;;-144.57;100.00;62443.72;5072922;28;20120;-67
2023/04/17 02:13:35;;;;;;;16.67;10.90;;;;;;;-144.57;100.00;62443.72;5072580;28;20044;-67
2023/04/17 02:16:03;;;;;;;18.90;12.00;;;;;;;-144.57;100.00;62443.72;5074287;28;20044;-69
2023/04/17 02:18:50;;;;;;;17.65;11.55;;;;;;;-144.57;100.00;62443.72;5072330;28;20059;-67
2023/04/17 02:21:16;;;;;;;22.08;12.90;;;;;;;-144.57;100.00;62443.72;5055456;28;20041;-67
2023/04/17 02:23:42;;;;;;;20.77;11.95;;;;;;;-144.57;100.00;62443.72;5072681;28;20059;-68
2023/04/17 02:26:08;;;;;;;24.27;12.45;;;;;;;-144.57;100.00;62443.72;5073476;28;20111;-67
2023/04/17 02:28:35;;;;;;;20.13;11.70;;;;;;;-144.57;100.00;62443.72;5055781;28;20044;-67
2023/04/17 02:31:06;;;;;;;17.23;11.93;;;;;;;-144.57;100.00;62443.72;5072336;28;20036;-67
2023/04/17 02:33:32;;;;;;;19.95;11.93;;;;;;;-144.57;100.00;62443.72;5072756;28;20545;-67
2023/04/17 02:35:58;;;;;;;18.98;11.88;;;;;;;-144.57;100.00;62443.72;5072194;28;20128;-67
2023/04/17 02:38:32;;;;;;;28.85;12.25;;;;;;;-144.57;100.00;62443.72;5072271;28;20076;-67
2023/04/17 02:40:58;;;;;;;22.08;12.40;;;;;;;-144.57;100.00;62443.72;5038912;28;20075;-68
2023/04/17 02:43:25;;;;;;;22.95;12.40;;;;;;;-144.57;100.00;62443.72;5072277;28;20040;-67
2023/04/17 02:45:50;;;;;;;21.08;11.75;;;;;;;-144.57;100.00;62443.72;5071947;28;20490;-66
2023/04/17 02:48:17;;;;;;;25.27;12.65;;;;;;;-144.57;100.00;62443.72;5055542;28;20520;-68
2023/04/17 02:50:43;;;;;;;24.25;13.68;;;;;;;-144.57;100.00;62443.72;5055527;28;20052;-67
2023/04/17 02:53:13;;;;;;;22.58;12.25;;;;;;;-144.57;100.00;62443.72;5071816;28;20113;-68
2023/04/17 02:55:39;;;;;;;18.75;11.63;;;;;;;-144.57;100.00;62443.72;5070981;28;20505;-70
2023/04/17 02:58:05;;;;;;;16.88;12.02;;;;;;;-144.57;100.00;62443.72;5071700;28;20056;-68
2023/04/17 03:00:31;;;;;;;21.52;12.55;;;;;;;-144.57;100.00;62443.72;5072913;28;20521;-68
2023/04/17 03:02:57;;;;;;;18.92;11.10;;;;;;;-144.57;100.00;62443.72;5071947;28;20041;-68
2023/04/17 03:05:23;;;;;;;18.88;12.73;;;;;;;-144.57;100.00;62443.72;5038459;28;20563;-68
2023/04/17 03:07:50;;;;;;;17.98;11.90;;;;;;;-144.57;100.00;62443.72;5054420;28;20079;-68
2023/04/17 03:10:17;;;;;;;22.45;11.88;;;;;;;-144.57;100.00;62443.72;5055102;28;20599;-67
2023/04/17 03:12:46;;;;;;;20.08;12.57;;;;;;;-144.57;100.00;62443.72;5071514;28;20044;-67
2023/04/17 03:15:13;;;;;;;17.60;11.57;;;;;;;-144.57;100.00;62443.72;5038612;28;20053;-68
2023/04/17 03:17:39;;;;;;;18.33;12.80;;;;;;;-144.57;100.00;62443.72;5069909;28;20081;-69
2023/04/17 03:20:06;;;;;;;19.38;12.50;;;;;;;-144.57;100.00;62443.72;5071284;28;20175;-67
2023/04/17 03:22:33;;;;;;;22.10;12.27;;;;;;;-144.57;100.00;62443.72;5054676;28;20131;-69
2023/04/17 03:24:59;;;;;;;17.80;12.07;;;;;;;-144.57;100.00;62443.72;5053961;28;20127;-68
2023/04/17 03:27:33;;;;;;;19.58;12.65;;;;;;;-144.57;100.00;62443.72;5054746;28;20548;-68
2023/04/17 03:29:59;;;;;;;22.10;12.82;;;;;;;-144.57;100.00;62443.72;5071255;28;20040;-66
2023/04/17 03:32:26;;;;;;;18.60;12.00;;;;;;;-144.57;100.00;62443.72;5070321;28;20127;-70
2023/04/17 03:34:51;;;;;;;19.20;12.27;;;;;;;-144.57;100.00;62443.72;5054368;28;20086;-66
2023/04/17 03:37:17;;;;;;;19.92;11.88;;;;;;;-144.57;100.00;62443.72;5071245;28;20033;-66
2023/04/17 03:39:43;;;;;;;21.25;12.57;;;;;;;-144.57;100.00;62443.72;5071269;28;20557;-67
2023/04/17 03:42:13;;;;;;;19.90;13.07;;;;;;;-144.57;100.00;62443.72;5071166;28;20123;-69
2023/04/17 03:44:39;;;;;;;16.43;11.63;;;;;;;-144.57;100.00;62443.72;5054833;28;20488;-66
2023/04/17 03:47:06;;;;;;;21.73;12.13;;;;;;;-144.57;100.00;62443.72;5072119;28;20317;-67
2023/04/17 03:49:32;;;;;;;20.60;12.38;;;;;;;-144.57;100.00;62443.72;5054108;28;20545;-67
2023/04/17 03:51:59;;;;;;;20.15;12.25;;;;;;;-144.57;100.00;62443.72;5054224;28;20047;-68
2023/04/17 03:54:24;;;;;;;20.85;12.48;;;;;;;-144.57;100.00;62443.72;5054101;28;20134;-67
2023/04/17 03:56:52;;;;;;;19.52;12.02;;;;;;;-144.57;100.00;62443.72;5054564;28;20044;-68
2023/04/17 03:59:18;;;;;;;21.50;11.77;;;;;;;-144.57;100.00;62443.72;5070044;28;20051;-69
2023/04/17 04:01:45;;;;;;;23.42;12.45;;;;;;;-144.57;100.00;62443.72;5070406;28;20040;-68
2023/04/17 04:04:20;;;;;;;16.02;11.60;;;;;;;-144.57;100.00;62443.72;5070694;28;20052;-68
2023/04/17 04:06:48;;;;;;;17.92;12.75;;;;;;;-144.57;100.00;62443.72;5053481;28;20105;-67
2023/04/17 04:09:17;;;;;;;19.23;12.25;;;;;;;-144.57;100.00;62443.72;5053115;28;20461;-67
2023/04/17 04:11:43;;;;;;;19.08;11.82;;;;;;;-144.57;100.00;62443.72;5053623;28;20033;-69
2023/04/17 04:14:09;;;;;;;18.80;11.98;;;;;;;-144.57;100.00;62443.72;5053595;28;20075;-69
2023/04/17 04:16:35;;;;;;;17.73;11.75;;;;;;;-144.57;100.00;62443.72;5070506;28;20064;-68
2023/04/17 04:19:07;;;;;;;20.70;12.70;;;;;;;-144.57;100.00;62443.72;5070542;28;20055;-68
2023/04/17 04:21:33;;;;;;;22.75;12.50;;;;;;;-144.57;100.00;62443.72;5070188;28;20052;-66
2023/04/17 04:24:01;;;;;;;22.50;11.52;;;;;;;-144.57;100.00;62443.72;5070161;28;20525;-68
2023/04/17 04:26:27;;;;;;;17.52;10.68;;;;;;;-144.57;100.00;62443.72;5069073;28;20558;-71
2023/04/17 04:28:55;;;;;;;18.20;11.30;;;;;;;-144.57;100.00;62443.72;5053636;28;20044;-68
2023/04/17 04:31:45;;;;;;;26.20;11.43;;;;;;;-144.57;100.00;62443.72;5062587;28;20044;-67
2023/04/17 04:34:12;;;;;;;23.13;11.35;;;;;;;-144.57;100.00;62443.72;5051158;28;20147;-70
2023/04/17 04:36:48;;;;;;;36.55;12.02;;;;;;;-144.57;100.00;62443.72;5068871;28;20044;-67
2023/04/17 04:39:22;;;;;;;37.70;12.45;;;;;;;-144.57;100.00;62443.72;5052927;28;20465;-66
2023/04/17 04:41:49;;;;;;;30.88;13.43;;;;;;;-144.57;100.00;62443.72;5054842;28;20037;-68
2023/04/17 04:44:16;;;;;;;43.72;13.07;;;;;;;-144.57;100.00;62443.72;5016206;28;20071;-69
2023/04/17 04:46:44;;;;;;;49.47;12.50;;;;;;;-144.57;100.00;62443.72;5021561;28;20045;-67
2023/04/17 04:49:10;;;;;;;32.00;12.73;;;;;;;-144.57;100.00;62443.72;5049849;28;20049;-68
2023/04/17 04:51:36;;;;;;;35.08;13.07;;;;;;;-144.57;100.00;62443.72;5033661;28;20175;-71
2023/04/17 04:54:05;;;;;;;26.88;11.32;;;;;;;-144.57;100.00;62443.72;5049866;28;20045;-67
2023/04/17 04:56:36;;;;;;;23.65;10.55;;;;;;;-144.57;100.00;62443.72;5049495;28;20041;-68
2023/04/17 04:59:02;;;;;;;16.58;11.38;;;;;;;-144.57;100.00;62443.72;5050090;28;20045;-67
2023/04/17 05:01:31;;;;;;;18.05;10.57;;;;;;;-144.57;100.00;62443.72;5056722;28;20081;-68
2023/04/17 05:03:57;;;;;;;18.65;10.60;;;;;;;-144.57;100.00;62443.72;5049576;28;20127;-70
2023/04/17 05:06:28;;;;;;;17.40;9.90;;;;;;;-144.57;100.00;62443.72;5017649;28;20048;-76
2023/04/17 05:08:59;;;;;;;31.20;11.18;;;;;;;-144.57;100.00;62443.72;5018490;28;20068;-70
2023/04/17 05:11:25;;;;;;;20.38;10.25;;;;;;;-144.57;100.00;62443.72;5048585;28;20560;-69
2023/04/17 05:13:51;;;;;;;19.98;10.13;;;;;;;-144.57;100.00;62443.72;5050687;28;20111;-70
2023/04/17 05:16:23;;;;;;;20.50;11.77;;;;;;;-144.57;100.00;62443.72;5048472;28;20130;-67
2023/04/17 05:18:48;;;;;;;24.02;11.10;;;;;;;-144.57;100.00;62443.72;5050797;28;20068;-67
2023/04/17 05:21:20;;;;;;;23.73;10.75;;;;;;;-144.57;100.00;62443.72;5033398;28;20040;-70
2023/04/17 05:23:49;;;;;;;17.95;10.20;;;;;;;-144.57;100.00;62443.72;5031489;28;20140;-71
2023/04/17 05:26:15;;;;;;;19.27;9.40;;;;;;;-144.57;100.00;62443.72;5068907;28;20140;-71
2023/04/17 05:28:43;;;;;;;22.63;10.57;;;;;;;-144.57;100.00;62443.72;5018904;28;20136;-71
2023/04/17 05:31:10;;;;;;;20.00;10.70;;;;;;;-144.57;100.00;62443.72;5063864;28;20044;-66
2023/04/17 05:33:40;;;;;;;29.83;10.73;;;;;;;-144.57;100.00;62443.72;5066639;28;20051;-68
2023/04/17 05:36:07;;;;;;;22.05;10.43;;;;;;;-144.57;100.00;62443.72;5031806;28;20734;-69
2023/04/17 05:38:36;;;;;;;24.02;9.73;;;;;;;-144.57;100.00;62443.72;5047439;28;20046;-71
2023/04/17 05:41:08;;;;;;;23.63;10.00;;;;;;;-144.57;100.00;62443.72;5030367;28;20041;-68
2023/04/17 05:43:34;;;;;;;17.73;9.60;;;;;;;-144.57;100.00;62443.72;5029894;28;20065;-68
2023/04/17 05:46:00;;;;;;;24.65;9.50;;;;;;;-144.57;100.00;62443.72;5044349;28;20048;-70
2023/04/17 05:48:26;;;;;;;27.92;9.98;;;;;;;-144.57;100.00;62443.72;5061591;28;20045;-68
2023/04/17 05:50:52;;;;;;;22.08;9.75;;;;;;;-144.57;100.00;62443.72;5060836;28;20558;-69
2023/04/17 05:53:17;;;;;;;18.20;9.57;;;;;;;-144.57;100.00;62443.72;5028903;28;20102;-69
2023/04/17 05:55:48;;;;;;;17.38;9.40;;;;;;;-144.57;100.00;62443.72;5048627;28;20127;-69
2023/04/17 05:58:14;;;;;;;16.17;9.70;;;;;;;-144.57;100.00;62443.72;5052482;28;20051;-67
2023/04/17 06:00:41;;;;;;;15.20;9.20;;;;;;;-144.57;100.00;62443.72;5055765;28;20048;-69
2023/04/17 06:03:09;;;;;;;15.68;8.93;;;;;;;-144.57;100.00;62443.72;5057838;28;20064;-69
2023/04/17 06:05:38;;;;;;;17.00;9.50;;;;;;;-144.57;100.00;62443.72;5059347;28;20436;-71
2023/04/17 06:08:05;;;;;;;15.63;8.43;;;;;;;-144.57;100.00;62443.72;5047648;28;20113;-70
2023/04/17 06:10:32;;;;;;;13.25;7.97;;;;;;;-144.57;100.00;62443.72;5015853;28;20131;-67
2023/04/17 06:13:01;;;;;;;13.13;7.90;;;;;;;-144.57;100.00;62443.72;5051827;28;20528;-69
2023/04/17 06:15:27;;;;;;;16.90;7.97;;;;;;;-144.57;100.00;62443.72;5050560;28;20032;-69
2023/04/17 06:17:53;;;;;;;12.18;7.72;;;;;;;-144.57;100.00;62443.72;5033797;28;20461;-69
2023/04/17 06:20:19;;;;;;;18.90;8.18;;;;;;;-144.57;100.00;62443.72;5050031;28;20040;-71
2023/04/17 06:22:45;;;;;;;11.23;7.60;;;;;;;-144.57;100.00;62443.72;5033672;28;20504;-70
2023/04/17 06:25:12;;;;;;;16.02;9.02;;;;;;;-144.57;100.00;62443.72;5051588;28;20077;-70
2023/04/17 06:27:39;;;;;;;13.27;8.05;;;;;;;-144.57;100.00;62443.72;5033560;28;20143;-67
2023/04/17 06:30:06;;;;;;;13.23;8.30;;;;;;;-144.57;100.00;62443.72;5050007;28;20589;-70
2023/04/17 06:32:42;;;;;;;13.80;8.02;;;;;;;-144.57;100.00;62443.72;5019482;28;20048;-68
2023/04/17 06:35:09;;;;;;;13.18;8.27;;;;;;;-144.57;100.00;62443.72;5049046;28;20067;-70
2023/04/17 06:37:58;;;;;;;18.90;10.23;;;;;;;-144.57;100.00;62443.72;5051001;28;20045;-67
2023/04/17 06:40:24;;;;;;;14.82;9.65;;;;;;;-144.57;100.00;62443.72;5069387;28;20049;-67
2023/04/17 06:42:50;;;;;;;23.17;9.57;;;;;;;-144.57;100.00;62443.72;5069588;28;20418;-68
2023/04/17 06:45:19;;;;;;;21.08;9.85;;;;;;;-144.57;100.00;62443.72;5069633;28;20501;-67
2023/04/17 06:47:45;;;;;;;17.85;10.30;;;;;;;-144.57;100.00;62443.72;5069089;28;20090;-65
2023/04/17 06:50:18;;;;;;;21.73;10.07;;;;;;;-144.57;100.00;62443.72;5070398;28;20082;-68
2023/04/17 06:52:44;;;;;;;20.25;9.73;;;;;;;-144.57;100.00;62443.72;5068519;28;20086;-68
2023/04/17 06:55:10;;;;;;;12.98;9.40;;;;;;;-144.57;100.00;62443.72;5072402;28;20090;-66
2023/04/17 06:57:36;;;;;;;14.65;9.45;;;;;;;-144.57;100.00;62443.72;5069538;28;20044;-67
2023/04/17 07:00:03;;;;;;;19.45;9.88;;;;;;;-144.57;100.00;62443.72;5069052;28;20286;-66
2023/04/17 07:02:34;;;;;;;16.45;10.48;;;;;;;-144.57;100.00;62443.72;5070632;28;20047;-70
2023/04/17 07:05:00;;;;;;;15.63;10.05;;;;;;;-144.57;100.00;62443.72;5067907;28;20045;-67
2023/04/17 07:07:28;;;;;;;17.45;10.43;;;;;;;-144.57;100.00;62443.72;5065900;28;20057;-68
2023/04/17 07:09:54;;;;;;;25.98;11.15;;;;;;;-144.57;100.00;62443.72;5067015;28;20044;-68
2023/04/17 07:12:21;;;;;;;19.08;11.02;;;;;;;-144.57;100.00;62443.72;5035560;28;20467;-69
2023/04/17 07:14:47;;;;;;;20.90;10.73;;;;;;;-144.57;100.00;62443.72;5070271;28;20033;-68
2023/04/17 07:17:13;;;;;;;16.65;10.40;;;;;;;-144.57;100.00;62443.72;5071837;28;20041;-67
2023/04/17 07:19:38;;;;;;;22.15;10.80;;;;;;;-144.57;100.00;62443.72;5071778;28;20409;-68
2023/04/17 07:22:04;;;;;;;19.75;10.45;;;;;;;-144.57;100.00;62443.72;5067285;28;20043;-68
2023/04/17 07:24:33;;;;;;;17.58;10.52;;;;;;;-144.57;100.00;62443.72;5069180;28;20049;-67
2023/04/17 07:27:01;;;;;;;19.42;10.77;;;;;;;-144.57;100.00;62443.72;5069037;28;20055;-67
2023/04/17 07:29:27;;;;;;;17.40;11.00;;;;;;;-144.57;100.00;62443.72;5065708;28;20120;-66
2023/04/17 07:31:53;;;;;;;18.17;11.40;;;;;;;-144.57;100.00;62443.72;5069202;28;20140;-65
2023/04/17 07:34:19;;;;;;;18.70;11.07;;;;;;;-144.57;100.00;62443.72;5068653;28;20068;-66
2023/04/17 07:36:46;;;;;;;17.00;10.60;;;;;;;-144.57;100.00;62443.72;5050562;28;20463;-67
2023/04/17 07:39:11;;;;;;;21.50;10.90;;;;;;;-144.57;100.00;62443.72;5051067;28;20047;-72
2023/04/17 07:41:37;;;;;;;21.17;11.40;;;;;;;-144.57;100.00;62443.72;5068615;28;20143;-68
2023/04/17 07:44:04;;;;;;;18.52;11.70;;;;;;;-144.57;100.00;62443.72;5051847;28;20136;-67
2023/04/17 07:46:31;;;;;;;21.52;11.70;;;;;;;-144.57;100.00;62443.72;5068567;28;20048;-67
2023/04/17 07:48:57;;;;;;;16.38;10.88;;;;;;;-144.57;100.00;62443.72;5069934;28;20064;-70
2023/04/17 07:51:23;;;;;;;22.65;12.10;;;;;;;-144.57;100.00;62443.72;5070136;28;20044;-69
2023/04/17 07:53:49;;;;;;;19.30;12.43;;;;;;;-144.57;100.00;62443.72;5070978;28;20090;-68
2023/04/17 07:56:16;;;;;;;17.02;11.30;;;;;;;-144.57;100.00;62443.72;5053128;28;20457;-69
2023/04/17 07:58:44;;;;;;;17.48;12.05;;;;;;;-144.57;100.00;62443.72;5070765;28;20044;-69
2023/04/17 08:01:10;;;;;;;21.73;11.88;;;;;;;-144.57;100.00;62443.72;5060592;28;20103;-68
2023/04/17 08:03:39;;;;;;;23.67;12.93;;;;;;;-144.57;100.00;62443.72;5069488;28;20485;-68
2023/04/17 08:06:05;;;;;;;22.40;12.48;;;;;;;-144.57;100.00;62443.72;5067375;28;20136;-69
2023/04/17 08:08:30;;;;;;;23.33;13.00;;;;;;;-144.57;100.00;62443.72;5067369;28;20131;-69
2023/04/17 08:10:56;;;;;;;21.10;12.23;;;;;;;-144.57;100.00;62443.72;5067974;28;20126;-69
2023/04/17 08:13:22;;;;;;;22.38;12.10;;;;;;;-144.57;100.00;62443.72;5062617;28;20109;-72
2023/04/17 08:15:51;;;;;;;21.55;12.90;;;;;;;-144.57;100.00;62443.72;5043897;28;20039;-80
2023/04/17 08:18:16;;;;;;;23.08;14.77;;;;;;;-144.57;100.00;62443.72;5013603;28;20091;-75
2023/04/17 08:20:42;;;;;;;21.50;13.13;;;;;;;-144.57;100.00;62443.72;5047694;28;20049;-68
2023/04/17 08:23:08;;;;;;;21.75;12.45;;;;;;;-144.57;100.00;62443.72;5056874;28;20556;-68
2023/04/17 08:25:34;;;;;;;26.17;13.52;;;;;;;-144.57;100.00;62443.72;5053537;28;20449;-69
2023/04/17 08:27:59;;;;;;;24.98;13.82;;;;;;;-144.57;100.00;62443.72;5047463;28;20132;-68
2023/04/17 08:30:25;;;;;;;32.65;13.85;;;;;;;-144.57;100.00;62443.72;5049249;28;20037;-69
2023/04/17 08:32:51;;;;;;;23.02;13.35;;;;;;;-144.57;100.00;62443.72;5030289;28;20064;-70
2023/04/17 08:35:17;;;;;;;19.80;11.68;;;;;;;-144.57;100.00;62443.72;5046402;28;20045;-68
2023/04/17 08:37:45;;;;;;;21.60;13.20;;;;;;;-144.57;100.00;62443.72;5028570;28;20049;-70
2023/04/17 08:40:12;;;;;;;30.80;12.35;;;;;;;-144.57;100.00;62443.72;5065347;28;20076;-66
2023/04/17 08:42:40;;;;;;;26.27;12.18;;;;;;;-144.57;100.00;62443.72;5045049;28;20040;-67
2023/04/17 08:45:10;;;;;;;23.92;12.48;;;;;;;-144.57;100.00;62443.72;5046013;28;20052;-67
2023/04/17 08:47:40;;;;;;;;;;;;;;;-144.57;100.00;62443.72;5051998;28;20044;-67
2023/04/17 08:50:13;;;;;;;20.33;11.98;;;;;;;-144.57;100.00;62443.72;5066907;28;19930;-67
2023/04/17 08:52:47;;;;;;;19.83;11.30;;;;;;;-144.57;100.00;62443.72;5065319;28;20033;-67
2023/04/17 08:55:18;;;;;;;22.05;9.85;;;;;;;-144.57;100.00;62443.72;5065468;28;20052;-68
2023/04/17 08:57:59;;;;;;;24.23;11.73;;;;;;;-144.57;100.00;62443.72;5065873;28;20523;-68
2023/04/17 09:00:27;;;;;;;21.10;12.20;;;;;;;-144.57;100.00;62443.72;5064709;28;20056;-68
2023/04/17 09:02:56;;;;;;;21.70;11.88;;;;;;;-144.57;100.00;62443.72;5065497;28;20167;-68
2023/04/17 09:05:23;;;;;;;23.08;12.48;;;;;;;-144.57;100.00;62443.72;5066037;28;20044;-67
2023/04/17 09:07:50;;;;;;;20.50;11.25;;;;;;;-144.57;100.00;62443.72;5071856;28;20062;-69
2023/04/17 09:10:16;;;;;;;20.40;10.43;;;;;;;-144.57;100.00;62443.72;5034288;28;20092;-67
2023/04/17 09:12:58;;;;;;;18.30;10.25;;;;;;;-144.57;100.00;62443.72;5045332;28;20586;-67
2023/04/17 09:15:24;;;;;;;15.15;9.18;;;;;;;-144.57;100.00;62443.72;5060998;28;20044;-68
2023/04/17 09:17:50;;;;;;;12.35;8.65;;;;;;;-144.57;100.00;62443.72;5068317;28;20067;-71
2023/04/17 09:20:16;;;;;;;14.80;9.35;;;;;;;-144.57;100.00;62443.72;5067598;28;20477;-69
2023/04/17 09:22:42;;;;;;;17.92;9.77;;;;;;;-144.57;100.00;62443.72;5067084;28;20058;-68
2023/04/17 09:25:22;;;;;;;18.58;9.13;;;;;;;-144.57;100.00;62443.72;5066994;28;20128;-69
2023/04/17 09:27:47;;;;;;;15.50;9.55;;;;;;;-144.57;100.00;62443.72;5069157;28;20421;-70
2023/04/17 09:30:13;;;;;;;19.30;10.20;;;;;;;-144.57;100.00;62443.72;5072612;28;20044;-67
2023/04/17 09:32:42;;;;;;;14.90;9.07;;;;;;;-144.57;100.00;62443.72;5072335;28;20068;-68
2023/04/17 09:35:08;;;;;;;12.85;7.55;;;;;;;-144.57;100.00;62443.72;5054052;28;20113;-68
2023/04/17 09:37:50;;;;;;;13.10;7.97;;;;;;;-144.57;100.00;62443.72;5069932;28;20036;-67
2023/04/17 09:40:17;;;;;;;12.15;7.88;;;;;;;-144.57;100.00;62443.72;5070225;28;20506;-68
2023/04/17 09:43:01;;;;;;;19.13;7.43;;;;;;;-144.57;100.00;62443.72;5070386;28;20040;-69
2023/04/17 09:45:34;;;;;;;10.57;7.05;;;;;;;-144.57;100.00;62443.72;5052504;28;20040;-68
2023/04/17 09:48:01;;;;;;;11.48;7.20;;;;;;;-144.57;100.00;62443.72;5070334;28;20494;-69
2023/04/17 09:50:27;;;;;;;9.73;7.43;;;;;;;-144.57;100.00;62443.72;5052083;28;20045;-68
2023/04/17 09:52:54;;;;;;;12.45;7.82;;;;;;;-144.57;100.00;62443.72;5071005;28;20040;-68
2023/04/17 09:55:23;;;;;;;11.48;7.80;;;;;;;-144.57;100.00;62443.72;5069352;28;20090;-67
2023/04/17 09:57:59;;;;;;;14.20;8.07;;;;;;;-144.57;100.00;62443.72;5063978;28;20418;-68
2023/04/17 10:00:26;;;;;;;11.55;8.30;;;;;;;-144.57;100.00;62443.72;5049669;28;20059;-67
2023/04/17 10:02:52;;;;;;;16.55;8.90;;;;;;;-144.57;100.00;62443.72;5051656;28;20037;-69
2023/04/17 10:05:19;;;;;;;20.70;8.27;;;;;;;-144.57;100.00;62443.72;5035584;28;20544;-68
2023/04/17 10:07:46;;;;;;;20.23;7.80;;;;;;;-144.57;100.00;62443.72;5068845;28;20090;-66
2023/04/17 10:10:23;;;;;;;14.90;8.07;;;;;;;-144.57;100.00;62443.72;5065815;28;20155;-70
2023/04/17 10:12:49;;;;;;;11.50;8.40;;;;;;;-144.57;100.00;62443.72;5041572;28;20531;-68
2023/04/17 10:15:15;;;;;;;14.63;7.85;;;;;;;-144.57;100.00;62443.72;5041754;28;20148;-69
2023/04/17 10:17:42;;;;;;;10.95;7.82;;;;;;;-144.57;100.00;62443.72;5059918;28;20032;-65
2023/04/17 10:20:14;;;;;;;15.07;8.00;;;;;;;-144.57;100.00;62443.72;5055258;28;20033;-69
2023/04/17 10:22:42;;;;;;;23.45;8.13;;;;;;;-144.57;100.00;62443.72;5060692;28;20036;-69
2023/04/17 10:25:11;;;;;;;9.90;6.75;;;;;;;-144.57;100.00;62443.72;5050789;28;20040;-68
2023/04/17 10:27:37;;;;;;;10.83;6.50;;;;;;;-144.57;100.00;62443.72;5053765;28;20589;-68
2023/04/17 10:30:06;;;;;;;16.00;6.60;;;;;;;-144.57;100.00;62443.72;5046373;28;20299;-69
2023/04/17 10:32:33;;;;;;;10.83;5.90;;;;;;;-144.57;100.00;62443.72;5032733;28;20139;-68
2023/04/17 10:35:16;;;;;;;14.85;5.95;;;;;;;-144.57;100.00;62443.72;5015656;28;20037;-70
2023/04/17 10:37:51;;;;;;;7.68;5.40;;;;;;;-144.57;100.00;62443.72;5031070;28;20427;-68
2023/04/17 10:40:22;;;;;;;12.85;5.80;;;;;;;-144.57;100.00;62443.72;5050966;28;20518;-68
2023/04/17 10:43:02;;;;;;;11.48;4.85;;;;;;;-144.57;100.00;62443.72;5069870;28;20037;-69
2023/04/17 10:45:54;;;;;;;8.85;5.25;;;;;;;-144.57;100.00;62443.72;5069523;28;20207;-68
2023/04/17 10:48:21;;;;;;;8.68;5.00;;;;;;;-144.57;100.00;62443.72;5070503;28;20055;-67
2023/04/17 10:50:47;;;;;;;6.90;4.68;;;;;;;-144.57;100.00;62443.72;5053880;28;20045;-69
2023/04/17 10:53:36;;;;;;;16.63;5.25;;;;;;;-144.57;100.00;62443.72;5051924;28;20047;-68
2023/04/17 10:56:02;;;;;;;8.43;4.72;;;;;;;-144.57;100.00;62443.72;5068892;28;20044;-68
2023/04/17 10:58:28;;;;;;;7.72;4.47;;;;;;;-144.57;100.00;62443.72;5067225;28;20048;-68
2023/04/17 11:00:54;;;;;;;9.10;4.82;;;;;;;-144.57;100.00;62443.72;5051727;28;20449;-66